KMTJ/MTJ METAR and TAF weather

Enter ICAO airport designator
Station Type Date Time Source
KMTJ METAR 2020/07/15 03:53 UTC NOAA

KMTJ 150353Z AUTO 23007KT 10SM CLR 25/06 A3007 RMK AO2 WSHFT 0251 SLP086 T02500056


Station Type Date Time Source
KMTJ Decoded METAR 2020/07/15 03:53 UTC NOAA

MONTROSE REGIONAL AIRPORT, CO, United States (KMTJ) 38-30N 107-54W 1750M
Jul 14, 2020 - 11:53 PM EDT / 2020.07.15 0353 UTC
Wind: from the SW (230 degrees) at 8 MPH (7 KT):0
Visibility: 10 mile(s):0
Sky conditions: clear
Temperature: 77.0 F (25.0 C)
Dew Point: 42.1 F (5.6 C)
Relative Humidity: 28%
Pressure (altimeter): 30.07 in. Hg (1018 hPa)
ob: KMTJ 150353Z AUTO 23007KT 10SM CLR 25/06 A3007 RMK AO2 WSHFT 0251 SLP086 T02500056
cycle: 4

Station Type Date Time Source
KMTJ TAF 2020/07/14 18:42 UTC NOAA

TAF KMTJ 141740Z 1418/1518 34007KT P6SM FEW120 SCT250
FM142000 25012G24KT P6SM SCT120 BKN200
FM150300 15010KT P6SM FEW120 SCT200
FM151100 13007KT P6SM FEW100 FEW250

Example: see airport list